Time;durP1;ratioP1;P1;durP2;ratioP2;P2;SDS_P1;SDS_P2;PMS_P1;PMS_P2;Temp;Humidity;BMP_temperature;BMP_pressure;BME280_temperature;BME280_humidity;BME280_pressure;Samples;Min_cycle;Max_cycle;Signal;HPM_P1;HPM_P2
2022/08/25 03:57:14;;;;;;;16.75;7.60;;;;;;;20.88;91.50;100538.56;5606565;31;76324;-56
2022/08/25 04:00:18;;;;;;;15.10;7.40;;;;;;;20.88;91.50;100538.56;5583976;31;34123;-56
2022/08/25 04:03:21;;;;;;;19.75;8.18;;;;;;;20.38;92.89;100553.41;5583933;32;33810;-56
2022/08/25 04:06:23;;;;;;;13.13;7.87;;;;;;;20.41;92.87;100552.72;5583909;32;33847;-56
2022/08/25 04:09:26;;;;;;;15.45;7.70;;;;;;;20.42;93.18;100554.28;5583795;31;33676;-57
2022/08/25 04:12:32;;;;;;;13.77;7.30;;;;;;;20.59;92.05;100556.78;5583841;32;33696;-56
2022/08/25 04:15:34;;;;;;;15.13;7.40;;;;;;;20.48;92.68;100558.38;5583623;32;33619;-57
2022/08/25 04:18:36;;;;;;;19.17;7.85;;;;;;;20.42;92.99;100557.00;5583731;31;34347;-57
2022/08/25 04:21:39;;;;;;;12.45;6.62;;;;;;;20.52;92.60;100561.22;5583764;32;33578;-56
2022/08/25 04:24:41;;;;;;;14.93;7.43;;;;;;;20.58;92.43;100560.66;5583585;32;34317;-57
2022/08/25 04:27:44;;;;;;;15.55;7.45;;;;;;;20.56;92.38;100562.13;5583669;31;33601;-56
2022/08/25 04:30:46;;;;;;;10.48;6.60;;;;;;;20.57;92.19;100561.81;5583403;32;34169;-57
2022/08/25 04:33:54;;;;;;;9.63;7.03;;;;;;;20.59;92.10;100566.88;5583387;31;34337;-57
2022/08/25 04:37:00;;;;;;;11.88;7.32;;;;;;;20.65;92.04;100558.13;5583301;31;33680;-57
2022/08/25 04:40:04;;;;;;;13.35;7.78;;;;;;;20.69;92.81;100554.72;5583623;32;33314;-57
2022/08/25 04:43:07;;;;;;;12.75;7.30;;;;;;;20.81;91.40;100557.44;5584770;31;34432;-57
2022/08/25 04:46:14;;;;;;;12.98;6.85;;;;;;;20.73;92.16;100555.63;5599007;31;33853;-57
2022/08/25 04:49:22;;;;;;;14.77;8.10;;;;;;;20.78;92.60;100549.94;5585605;31;34193;-57
2022/08/25 04:52:24;;;;;;;12.10;8.48;;;;;;;20.81;92.55;100555.50;5569479;31;33380;-57
2022/08/25 04:55:26;;;;;;;15.80;8.05;;;;;;;20.77;92.85;100559.25;5576419;31;33663;-56
2022/08/25 04:58:28;;;;;;;14.68;7.78;;;;;;;20.82;92.96;100556.28;5570065;32;33762;-57
2022/08/25 05:01:31;;;;;;;17.98;7.78;;;;;;;20.86;93.00;100559.91;5571983;31;33795;-57
2022/08/25 05:04:35;;;;;;;14.13;7.53;;;;;;;20.88;93.35;100549.47;5568412;32;33595;-56
2022/08/25 05:07:37;;;;;;;14.80;7.90;;;;;;;20.96;93.40;100554.00;5559223;32;32270;-57
2022/08/25 05:10:40;;;;;;;16.20;8.10;;;;;;;21.02;93.60;100555.31;5551424;32;33541;-56
2022/08/25 05:13:47;;;;;;;16.87;7.57;;;;;;;21.07;93.79;100552.34;5555209;32;33721;-57
2022/08/25 05:16:54;;;;;;;13.40;7.78;;;;;;;21.20;93.51;100549.59;5558437;32;34516;-57
2022/08/25 05:19:56;;;;;;;12.45;8.02;;;;;;;21.29;93.74;100553.75;5554936;32;33730;-57
2022/08/25 05:22:58;;;;;;;12.68;7.85;;;;;;;21.40;93.27;100547.81;5572646;31;33647;-57
2022/08/25 05:26:04;;;;;;;15.20;8.05;;;;;;;21.53;92.70;100547.38;5550392;32;34400;-57
2022/08/25 05:29:09;;;;;;;16.52;8.63;;;;;;;21.64;92.15;100552.31;5550108;32;33866;-57
2022/08/25 05:32:11;;;;;;;19.65;8.32;;;;;;;21.87;89.03;100549.78;5552331;32;33890;-57
2022/08/25 05:35:14;;;;;;;21.12;8.50;;;;;;;21.87;88.95;100553.31;5549113;32;33638;-57
2022/08/25 05:38:17;;;;;;;15.88;8.32;;;;;;;22.02;88.26;100554.47;5550071;32;33724;-56
2022/08/25 05:41:24;;;;;;;13.35;7.93;;;;;;;22.14;87.02;100554.34;5560625;32;33660;-56
2022/08/25 05:44:26;;;;;;;20.77;8.20;;;;;;;22.09;87.63;100549.16;5559960;32;34283;-57
2022/08/25 05:47:28;;;;;;;24.37;8.82;;;;;;;22.10;87.46;100552.69;5554537;32;33352;-57
2022/08/25 05:50:30;;;;;;;15.77;7.80;;;;;;;22.17;87.14;100552.88;5554201;32;34245;-57
2022/08/25 05:53:33;;;;;;;18.75;8.15;;;;;;;22.24;85.77;100553.03;5556418;32;33644;-54
2022/08/25 05:56:36;;;;;;;18.83;7.80;;;;;;;22.37;85.75;100546.31;5554943;32;34378;-55
2022/08/25 05:59:38;;;;;;;13.35;7.80;;;;;;;22.48;85.70;100547.38;5558745;32;33787;-54
2022/08/25 06:02:42;;;;;;;15.70;7.95;;;;;;;22.52;86.23;100541.97;5550982;32;33694;-54
2022/08/25 06:05:45;;;;;;;15.88;8.65;;;;;;;22.59;86.82;100542.13;5549239;32;34350;-54
2022/08/25 06:08:47;;;;;;;17.98;8.23;;;;;;;22.71;86.44;100543.94;5558001;32;33292;-54
2022/08/25 06:11:50;;;;;;;14.35;8.80;;;;;;;22.78;86.30;100540.56;5557212;32;33634;-55
2022/08/25 06:14:56;;;;;;;21.00;8.00;;;;;;;22.89;86.97;100544.31;5553009;32;33586;-54
2022/08/25 06:18:00;;;;;;;13.77;7.62;;;;;;;22.97;86.82;100546.84;5556608;32;33690;-54
2022/08/25 06:21:12;;;;;;;17.90;7.82;;;;;;;23.06;87.21;100545.84;5555217;32;33576;-54
2022/08/25 06:24:14;;;;;;;16.17;7.15;;;;;;;23.14;86.70;100544.81;5555847;32;33844;-54
2022/08/25 06:27:17;;;;;;;13.30;7.72;;;;;;;23.23;86.33;100548.13;5560431;32;33646;-54
2022/08/25 06:30:22;;;;;;;18.08;8.10;;;;;;;23.37;83.92;100551.12;5555403;32;33214;-54
2022/08/25 06:33:30;;;;;;;12.73;7.30;;;;;;;23.50;84.00;100553.69;5554878;32;33807;-55
2022/08/25 06:36:33;;;;;;;14.93;7.70;;;;;;;23.59;81.23;100555.06;5554936;32;33629;-54
2022/08/25 06:39:36;;;;;;;16.98;7.82;;;;;;;23.72;79.93;100563.13;5556746;32;33869;-54
2022/08/25 06:42:38;;;;;;;15.88;7.90;;;;;;;23.86;80.27;100566.88;5567369;32;33681;-54
2022/08/25 06:45:42;;;;;;;14.23;6.95;;;;;;;23.92;78.81;100565.41;5559894;32;33461;-54
2022/08/25 06:48:46;;;;;;;20.88;6.97;;;;;;;24.00;77.97;100569.06;5550616;32;33708;-54
2022/08/25 06:51:49;;;;;;;16.83;7.07;;;;;;;24.10;76.48;100573.13;5555162;32;34198;-55
2022/08/25 06:54:52;;;;;;;14.55;6.60;;;;;;;24.13;75.63;100564.97;5550943;32;33888;-55
2022/08/25 06:57:54;;;;;;;22.67;7.82;;;;;;;24.24;76.38;100559.69;5552581;32;34331;-55
2022/08/25 07:01:11;;;;;;;17.12;7.35;;;;;;;24.29;75.80;100566.78;5552764;32;34052;-54
2022/08/25 07:04:21;;;;;;;15.50;7.18;;;;;;;24.29;77.08;100564.81;5554454;32;33634;-54
2022/08/25 07:07:24;;;;;;;13.73;6.97;;;;;;;24.33;75.85;100564.88;5551203;32;34367;-55
2022/08/25 07:10:44;;;;;;;16.80;7.00;;;;;;;24.38;74.87;100561.81;5557593;32;34239;-55
2022/08/25 07:13:50;;;;;;;16.85;7.22;;;;;;;24.42;74.90;100565.44;5551505;31;32243;-54
2022/08/25 07:16:52;;;;;;;15.63;6.80;;;;;;;24.53;74.40;100569.09;5550426;32;34320;-54
2022/08/25 07:19:54;;;;;;;12.10;6.62;;;;;;;24.56;75.06;100564.84;5558436;32;33666;-54
2022/08/25 07:22:58;;;;;;;18.27;7.03;;;;;;;24.56;74.57;100562.87;5562598;32;33815;-55
2022/08/25 07:26:11;;;;;;;16.90;6.97;;;;;;;24.65;72.79;100568.09;5549382;32;33751;-54
2022/08/25 07:29:37;;;;;;;129.02;14.13;;;;;;;24.66;72.00;100558.72;5560921;32;32935;-54
2022/08/25 07:32:44;;;;;;;14.23;6.90;;;;;;;24.73;72.48;100561.53;5562508;32;33671;-55
2022/08/25 07:35:46;;;;;;;14.25;6.20;;;;;;;24.65;73.35;100561.84;5554266;32;33439;-54
2022/08/25 07:38:49;;;;;;;43.87;9.40;;;;;;;24.68;74.34;100564.62;5559443;32;33685;-54
2022/08/25 07:41:53;;;;;;;13.50;6.18;;;;;;;24.70;72.25;100562.31;5556699;32;33869;-54
2022/08/25 07:44:56;;;;;;;11.20;5.78;;;;;;;24.81;73.51;100562.44;5547468;32;33599;-54
2022/08/25 07:48:02;;;;;;;14.00;5.93;;;;;;;24.83;71.52;100552.69;5555294;32;33623;-54
2022/08/25 07:51:12;;;;;;;11.75;6.10;;;;;;;24.82;71.74;100558.53;5563732;32;33718;-54
2022/08/25 07:54:15;;;;;;;13.38;5.93;;;;;;;24.95;70.79;100550.84;5553473;32;33683;-55
2022/08/25 07:57:17;;;;;;;15.05;6.07;;;;;;;24.96;71.92;100557.91;5553548;32;34340;-54
2022/08/25 08:00:20;;;;;;;10.30;5.75;;;;;;;25.03;71.72;100558.00;5549788;32;34957;-54
2022/08/25 08:03:22;;;;;;;15.63;5.95;;;;;;;25.07;71.12;100545.13;5547222;32;33885;-54
2022/08/25 08:06:45;;;;;;;14.45;5.78;;;;;;;25.11;70.34;100556.94;5555348;32;32149;-55
2022/08/25 08:09:47;;;;;;;12.18;6.18;;;;;;;25.14;68.67;100549.94;5554899;32;33638;-54
2022/08/25 08:12:57;;;;;;;14.05;5.57;;;;;;;25.18;67.81;100548.81;5560567;32;34224;-54
2022/08/25 08:16:00;;;;;;;18.50;5.90;;;;;;;25.22;68.71;100551.59;5557191;32;33632;-55
2022/08/25 08:19:03;;;;;;;29.75;6.95;;;;;;;25.25;67.19;100554.34;5562030;32;33678;-54
2022/08/25 08:22:06;;;;;;;20.95;5.55;;;;;;;25.43;66.16;100556.50;5546237;32;33598;-54
2022/08/25 08:25:10;;;;;;;12.50;4.55;;;;;;;25.40;63.71;100560.03;5551755;32;33692;-54
2022/08/25 08:28:26;;;;;;;11.35;4.68;;;;;;;25.41;64.66;100556.88;5554510;32;33470;-54
2022/08/25 08:31:28;;;;;;;18.85;4.45;;;;;;;25.41;64.97;100556.09;5548046;32;34289;-54
2022/08/25 08:34:31;;;;;;;16.80;4.80;;;;;;;25.40;65.09;100555.31;5557324;32;34584;-54
2022/08/25 08:37:36;;;;;;;21.30;6.05;;;;;;;25.43;67.56;100546.34;5551871;32;33669;-54
2022/08/25 08:42:15;;;;;;;14.43;4.85;;;;;;;25.48;67.65;100545.19;5565682;32;33583;-54
2022/08/25 08:44:34;;;;;;;13.73;4.30;;;;;;;25.55;65.19;100545.25;5553233;32;33656;-54
2022/08/25 08:47:37;;;;;;;9.50;3.97;;;;;;;25.62;65.28;100548.06;5556286;32;34406;-54
2022/08/25 08:51:08;;;;;;;10.55;4.22;;;;;;;25.66;63.49;100545.34;5550767;32;34255;-54
2022/08/25 08:54:19;;;;;;;10.50;4.32;;;;;;;25.69;62.97;100537.12;5527786;32;33482;-55
2022/08/25 08:57:27;;;;;;;12.95;5.03;;;;;;;25.73;62.87;100539.94;5556129;32;32032;-54
2022/08/25 09:00:37;;;;;;;13.82;5.05;;;;;;;25.78;62.20;100539.56;5558712;32;34400;-54
2022/08/25 09:03:43;;;;;;;9.90;4.60;;;;;;;25.81;64.62;100535.31;5555459;32;34394;-54
2022/08/25 09:06:48;;;;;;;11.70;5.00;;;;;;;25.81;63.18;100536.09;5556788;32;33645;-54
2022/08/25 09:09:51;;;;;;;13.40;5.50;;;;;;;25.98;63.06;100531.91;5559934;32;33801;-54
2022/08/25 09:13:03;;;;;;;12.57;5.53;;;;;;;26.00;63.45;100538.59;5556889;32;33864;-54
2022/08/25 10:56:28;;;;;;;14.95;5.25;;;;;;;27.25;54.98;100430.34;5586267;31;34268;-54
2022/08/25 11:00:01;;;;;;;14.38;5.22;;;;;;;27.21;53.98;100426.81;5588847;31;34136;-54
2022/08/25 11:03:10;;;;;;;11.77;5.60;;;;;;;27.23;55.36;100419.75;5588646;31;33450;-55
2022/08/25 11:06:22;;;;;;;11.52;5.10;;;;;;;27.20;55.12;100420.53;5587981;31;33879;-55
2022/08/25 11:09:32;;;;;;;11.15;4.50;;;;;;;27.26;53.24;100399.69;5588750;31;33776;-55
2022/08/25 11:12:43;;;;;;;11.60;5.53;;;;;;;27.25;53.70;100405.56;5588685;31;33606;-55
2022/08/25 11:15:57;;;;;;;10.52;4.75;;;;;;;27.28;53.76;100402.81;5588601;31;33644;-54
2022/08/25 11:19:44;;;;;;;13.95;5.18;;;;;;;27.28;52.76;100397.31;5588762;31;33738;-55
2022/08/25 11:22:54;;;;;;;11.50;5.30;;;;;;;27.38;55.12;100390.22;5588625;31;31992;-55
2022/08/25 11:26:07;;;;;;;13.25;5.45;;;;;;;27.31;54.31;100393.78;5588753;31;33945;-54
2022/08/25 11:29:20;;;;;;;10.43;4.95;;;;;;;27.28;54.40;100382.78;5588301;31;33581;-55
2022/08/25 11:32:24;;;;;;;8.65;4.80;;;;;;;27.43;55.23;100384.34;5588779;31;34435;-55
2022/08/25 11:35:46;;;;;;;9.13;4.80;;;;;;;27.45;53.95;100381.19;5588506;31;33640;-55
2022/08/25 11:39:02;;;;;;;10.15;5.30;;;;;;;27.37;54.96;100372.16;5588428;31;33627;-55
2022/08/25 11:42:17;;;;;;;10.48;5.65;;;;;;;27.41;55.85;100376.47;5587948;31;34293;-55
2022/08/25 11:45:41;;;;;;;10.43;5.20;;;;;;;27.27;54.77;100370.19;5587916;31;34431;-55
2022/08/25 11:48:49;;;;;;;11.00;5.00;;;;;;;27.24;56.82;100355.25;5587917;31;33723;-55
2022/08/25 11:51:52;;;;;;;8.20;4.47;;;;;;;27.22;55.70;100352.13;5588193;31;33617;-55
2022/08/25 11:54:55;;;;;;;9.27;4.70;;;;;;;27.26;55.05;100352.13;5588168;31;34422;-54
2022/08/25 11:58:32;;;;;;;;;;;;;;;27.38;54.37;100348.94;5588153;31;34363;-55
2022/08/25 12:01:44;;;;;;;10.13;4.95;;;;;;;27.41;53.01;100343.44;5553134;31;34646;-55
2022/08/25 12:04:46;;;;;;;10.13;4.82;;;;;;;27.56;53.45;100338.69;5587497;31;33847;-55
2022/08/25 12:11:37;;;;;;;9.77;5.30;;;;;;;27.62;53.51;100336.34;5587677;31;33678;-54
2022/08/25 12:14:45;;;;;;;14.65;5.18;;;;;;;27.76;52.24;100335.50;5587579;31;33468;-55
2022/08/25 12:18:33;;;;;;;11.20;4.68;;;;;;;27.69;52.49;100335.53;5589146;31;33722;-55
2022/08/25 12:21:35;;;;;;;14.18;4.78;;;;;;;27.76;52.24;100330.00;5586781;31;34545;-55
2022/08/25 12:24:40;;;;;;;14.13;4.72;;;;;;;27.82;52.78;100336.69;5589763;31;33700;-55
2022/08/25 12:28:18;;;;;;;14.23;5.43;;;;;;;27.84;52.81;100337.84;5590061;31;33643;-54
2022/08/25 12:31:37;;;;;;;14.05;5.47;;;;;;;27.77;51.88;100331.59;5589939;31;34323;-55
2022/08/25 12:34:52;;;;;;;13.00;4.60;;;;;;;27.84;50.81;100334.31;5589950;31;33619;-55
2022/08/25 12:38:12;;;;;;;10.95;5.35;;;;;;;27.86;51.03;100334.72;5589796;31;33691;-55
2022/08/25 12:41:20;;;;;;;13.32;4.35;;;;;;;27.80;51.56;100331.56;5589836;31;33827;-54
2022/08/25 12:44:39;;;;;;;17.00;5.25;;;;;;;27.92;49.50;100324.06;5589919;31;34339;-54
2022/08/25 12:47:46;;;;;;;11.55;4.65;;;;;;;27.85;49.07;100320.16;5589848;31;33772;-54
2022/08/25 12:50:57;;;;;;;14.73;4.70;;;;;;;27.83;48.28;100313.47;5589626;31;33747;-55
2022/08/25 12:54:15;;;;;;;15.68;5.07;;;;;;;27.85;49.62;100313.88;5589951;31;33635;-54
2022/08/25 12:57:43;;;;;;;11.57;4.72;;;;;;;27.95;49.12;100310.28;5589555;31;33426;-54
2022/08/25 13:01:09;;;;;;;14.40;5.53;;;;;;;28.02;48.58;100313.00;5589738;31;33704;-55
2022/08/25 13:04:33;;;;;;;13.27;5.50;;;;;;;28.15;52.01;100307.81;5589953;31;34396;-55
2022/08/25 13:07:53;;;;;;;20.00;6.15;;;;;;;28.13;51.41;100301.13;5589437;31;33788;-55
2022/08/25 13:11:06;;;;;;;14.38;5.05;;;;;;;28.13;51.02;100301.13;5589359;31;33783;-54
2022/08/25 13:14:24;;;;;;;14.52;5.45;;;;;;;28.05;50.52;100297.63;5589398;31;34415;-55
2022/08/25 13:17:32;;;;;;;16.77;5.18;;;;;;;28.06;51.42;100299.97;5589654;31;33597;-55
2022/08/25 13:20:35;;;;;;;11.07;5.18;;;;;;;28.08;50.58;100291.34;5589479;31;33794;-55
2022/08/25 13:23:44;;;;;;;14.32;4.97;;;;;;;28.22;50.50;100296.75;5589327;31;33166;-54
2022/08/25 13:26:52;;;;;;;7.70;4.95;;;;;;;28.23;51.23;100281.78;5589132;31;33584;-55
2022/08/25 13:29:58;;;;;;;9.43;5.10;;;;;;;28.22;49.75;100285.72;5589525;31;33753;-55
2022/08/25 13:33:22;;;;;;;18.12;4.70;;;;;;;28.24;50.17;100288.06;5589628;31;33519;-54
2022/08/25 13:40:17;;;;;;;12.55;5.47;;;;;;;28.35;49.22;100283.28;5587802;31;33621;-55
2022/08/25 13:43:20;;;;;;;16.40;5.18;;;;;;;28.36;49.83;100275.81;5588961;31;34528;-55
2022/08/25 13:46:28;;;;;;;10.52;4.47;;;;;;;28.30;49.58;100275.44;5588922;31;34384;-55
2022/08/25 13:49:31;;;;;;;13.00;5.68;;;;;;;28.44;50.69;100274.59;5588722;31;33625;-55
2022/08/25 13:52:34;;;;;;;11.00;5.12;;;;;;;28.45;49.77;100273.41;5574591;31;32564;-55
2022/08/25 13:55:48;;;;;;;13.88;5.07;;;;;;;28.32;50.35;100275.81;5589121;31;33162;-55
2022/08/25 13:58:55;;;;;;;16.48;5.30;;;;;;;28.33;50.52;100272.66;5588893;31;33771;-55
2022/08/25 14:02:00;;;;;;;13.48;5.15;;;;;;;28.29;50.73;100273.88;5589519;31;33674;-55
2022/08/25 14:05:03;;;;;;;14.90;5.80;;;;;;;28.29;51.06;100277.41;5589404;31;33946;-54
2022/08/25 14:08:29;;;;;;;15.80;5.20;;;;;;;28.63;49.40;100263.03;5589332;31;33716;-55
2022/08/25 14:11:42;;;;;;;9.20;5.15;;;;;;;28.45;50.12;100259.62;5588379;31;33756;-54
